Franksville, WI

6:41 PM CDT on August 29, 2014 (GMT -0500)
My Observatory 108th & 4-1/2 mile Rd | Change Station
CLOSE
Current Station
Personal Weather Station
Location: Franksville, WI
Elevation: 810 ft
Nearby Weather Stations

Elev 810 ft 42.79 °N, 88.05 °W | Updated 11 seconds ago

Partly Cloudy
Partly Cloudy
79.8 °F
Feels Like 83 °F
N
1.3
Wind Variable Wind from North
Gusts 3.4 mph

Today
High -- | Low -- °F
--% Chance of Precip.
Yesterday
High -- | Low -- °F
Precip. -- in
6:13 AM 7:31 PM
Waxing Crescent, 17% visible
Pressure 29.88 in
Visibility 8.0 miles
Clouds Clear
Heat Index 83 °F
Dew Point 72 °F
Humidity 77%
Rainfall 0.09 in
Snow Depth Not available.
UV 1 out of 12
Pollen 1.30 out of 12
PM2.5 Moderate
Flu Activity Not available.
METAR KRAC 292253Z AUTO 17013G20KT 8SM CLR 25/21 A2989 RMK AO2 SLP118 T02500211

More Conditions Fewer Conditions

Pressure 29.88 in
Visibility 8.0 miles
Clouds Clear
Heat Index 83 °F
Dew Point 72 °F
Humidity 77%
Rainfall 0.09 in
Snow Depth Not available.
UV 1 out of 12
Pollen 1.30 out of 12
PM2.5 Moderate
Flu Activity Not available.
METAR KRAC 292253Z AUTO 17013G20KT 8SM CLR 25/21 A2989 RMK AO2 SLP118 T02500211

More Conditions Fewer Conditions

10-Day Weather Forecast

Almanac

Astronomy

Aug. 29, 2014 Rise Set
Actual Time 6:13 AM CDT 7:31 PM CDT
Civil Twilight 5:43 AM CDT 8:00 PM CDT
Nautical Twilight 5:08 AM CDT 8:35 PM CDT
Astronomical Twilight 4:31 AM CDT 9:12 PM CDT
Moon 10:08 AM CDT 9:22 PM CDT
Length of Visible Light 14h 16m
Length of Day
13h 18m
Tomorrow will be 2m 47s shorter.
Waxing Crescent, 17% of the Moon is Illuminated
Today
Waxing Crescent
Sep 2
First Quarter
Sep 8
Full
Sep 15
Last Quarter
Sep 24
New

Today's Extremes

State Highs State Lows

Community

WunderPhotos

Upload Photos

1,748,379 photos uploaded!

Nearby

Air Quality

  Air Quality AQ Index Pollutant
Yesterday Good
OZONE
Yesterday Good
PM2.5
Current Moderate
PM2.5
Friday Moderate
OZONE
Friday Good
PM2.5
Saturday Good
OZONE
Saturday Good
PM2.5
Sunday Moderate
OZONE
Sunday Moderate
PM2.5
Monday Good
OZONE
Monday Good
PM2.5
Tuesday Good
OZONE
Tuesday Good
PM2.5

Snow Depth

Station Depth Elevation
No new snow has been reported.

Earthquake Activity

City Distance Mag. Time & Date
No recent earthquake activity has been reported nearby.
Minimum magnitude displayed is 2.5.

Coastal Water Temperatures

Place Temperature
No Stations Reporting

Nearby Weather Stations